Time;durP1;ratioP1;P1;durP2;ratioP2;P2;SDS_P1;SDS_P2;PMS_P1;PMS_P2;Temp;Humidity;BMP_temperature;BMP_pressure;BME280_temperature;BME280_humidity;BME280_pressure;Samples;Min_cycle;Max_cycle;Signal;HPM_P1;HPM_P2
2021/07/30 00:01:55;;;;;;;5.97;3.83;;;18.80;99.90;;;;;;5032904;28;20406;-61
2021/07/30 00:04:21;;;;;;;4.30;3.90;;;18.90;99.90;;;;;;5032971;28;20179;-61
2021/07/30 00:06:46;;;;;;;5.87;4.93;;;18.80;99.90;;;;;;5033046;28;20243;-60
2021/07/30 00:09:12;;;;;;;5.07;4.10;;;18.80;99.90;;;;;;5032890;28;20680;-61
2021/07/30 00:11:39;;;;;;;5.20;4.70;;;18.80;99.90;;;;;;5032972;28;20225;-61
2021/07/30 00:14:05;;;;;;;5.57;4.40;;;18.80;99.90;;;;;;5032488;28;20285;-60
2021/07/30 00:16:31;;;;;;;5.10;4.60;;;18.70;99.90;;;;;;5033191;28;20434;-61
2021/07/30 00:18:56;;;;;;;4.80;4.40;;;18.80;99.90;;;;;;5032840;28;20544;-61
2021/07/30 00:21:22;;;;;;;4.87;4.20;;;18.70;99.90;;;;;;5032930;28;20278;-61
2021/07/30 00:23:48;;;;;;;7.00;3.80;;;18.60;99.90;;;;;;5032774;28;20228;-60
2021/07/30 00:26:13;;;;;;;7.73;4.97;;;18.60;99.90;;;;;;5032807;28;20701;-61
2021/07/30 00:28:39;;;;;;;5.50;3.70;;;18.60;99.90;;;;;;5032256;28;20195;-61
2021/07/30 00:31:04;;;;;;;5.53;3.90;;;18.50;99.90;;;;;;5033323;28;20508;-61
2021/07/30 00:33:30;;;;;;;4.83;3.90;;;18.50;99.90;;;;;;5032744;28;20226;-61
2021/07/30 00:35:56;;;;;;;4.77;4.17;;;18.50;99.90;;;;;;5032776;28;20163;-60
2021/07/30 00:38:22;;;;;;;4.47;3.73;;;18.60;99.90;;;;;;5032768;28;20191;-61
2021/07/30 00:40:47;;;;;;;4.20;3.67;;;18.60;99.90;;;;;;5032800;28;20701;-60
2021/07/30 00:43:13;;;;;;;3.90;3.60;;;18.60;99.90;;;;;;5032835;28;20238;-60
2021/07/30 00:45:39;;;;;;;4.30;3.83;;;18.70;99.90;;;;;;5032798;28;20167;-61
2021/07/30 00:48:06;;;;;;;4.77;4.20;;;18.60;99.90;;;;;;5032918;28;20206;-60
2021/07/30 00:50:32;;;;;;;8.60;4.80;;;18.60;99.90;;;;;;5033024;28;20417;-60
2021/07/30 00:52:57;;;;;;;7.03;4.30;;;18.50;99.90;;;;;;5032591;28;20413;-61
2021/07/30 00:55:24;;;;;;;5.80;4.20;;;18.50;99.90;;;;;;5032700;28;20198;-60
2021/07/30 00:57:52;;;;;;;4.50;4.03;;;18.50;99.90;;;;;;5035473;28;20175;-60
2021/07/30 01:00:19;;;;;;;4.73;4.23;;;18.60;99.90;;;;;;5036804;28;20401;-60
2021/07/30 01:02:45;;;;;;;4.97;4.57;;;18.50;99.90;;;;;;5036309;28;20398;-60
2021/07/30 01:05:12;;;;;;;6.93;4.80;;;18.50;99.90;;;;;;5036556;28;20762;-60
2021/07/30 01:07:38;;;;;;;6.50;4.73;;;18.40;99.90;;;;;;5036154;28;20426;-62
2021/07/30 01:10:05;;;;;;;4.17;3.80;;;18.40;99.90;;;;;;5045774;23;20544;-59
2021/07/30 01:12:31;;;;;;;4.30;4.00;;;18.30;99.90;;;;;;5016265;28;20779;-58
2021/07/30 01:14:57;;;;;;;4.30;3.97;;;18.30;99.90;;;;;;5016587;28;20438;-58
2021/07/30 01:17:25;;;;;;;4.27;3.97;;;18.30;99.90;;;;;;5016702;28;20175;-57
2021/07/30 01:19:54;;;;;;;4.80;4.10;;;18.30;99.90;;;;;;5016648;28;20192;-56
2021/07/30 01:22:26;;;;;;;4.10;3.70;;;18.10;99.90;;;;;;5016212;28;20407;-59
2021/07/30 01:24:53;;;;;;;4.30;3.90;;;18.20;99.90;;;;;;5016171;28;20785;-56
2021/07/30 01:27:22;;;;;;;4.60;4.00;;;18.20;99.90;;;;;;5016363;28;20414;-58
2021/07/30 01:29:48;;;;;;;4.80;4.10;;;18.20;99.90;;;;;;5015701;28;20434;-56
2021/07/30 01:32:15;;;;;;;4.60;3.90;;;18.20;99.90;;;;;;5016161;28;20810;-58
2021/07/30 01:34:42;;;;;;;5.00;4.47;;;18.20;99.90;;;;;;5015830;28;20450;-58
2021/07/30 01:37:09;;;;;;;4.60;3.90;;;18.20;99.90;;;;;;5015845;28;20419;-56
2021/07/30 01:39:35;;;;;;;4.23;3.83;;;18.20;99.90;;;;;;5015690;28;20479;-56
2021/07/30 01:42:00;;;;;;;4.03;3.70;;;18.00;99.90;;;;;;5015941;28;20411;-53
2021/07/30 01:44:26;;;;;;;5.63;4.67;;;18.00;99.90;;;;;;5015182;28;20225;-59
2021/07/30 01:46:52;;;;;;;5.03;4.53;;;18.00;99.90;;;;;;5015662;28;20168;-56
2021/07/30 01:49:17;;;;;;;4.17;3.87;;;17.90;99.90;;;;;;5015780;28;20246;-58
2021/07/30 01:51:43;;;;;;;4.37;3.97;;;17.80;99.90;;;;;;5015817;28;20568;-58
2021/07/30 01:54:09;;;;;;;4.30;3.90;;;17.90;99.90;;;;;;5015459;28;20188;-58
2021/07/30 01:56:34;;;;;;;4.50;4.10;;;17.80;99.90;;;;;;5015805;28;20661;-57
2021/07/30 01:59:00;;;;;;;5.10;4.60;;;17.60;99.90;;;;;;5015014;28;20198;-55
2021/07/30 02:01:25;;;;;;;4.83;3.87;;;17.60;99.90;;;;;;5015714;28;20258;-58
2021/07/30 02:03:51;;;;;;;4.33;3.83;;;17.60;99.90;;;;;;5015403;28;20168;-58
2021/07/30 02:06:17;;;;;;;4.57;4.10;;;17.50;99.90;;;;;;5015578;28;20172;-58
2021/07/30 02:08:43;;;;;;;4.17;3.87;;;17.40;99.90;;;;;;5014855;28;20762;-58
2021/07/30 02:11:12;;;;;;;5.23;4.70;;;17.30;99.90;;;;;;5015482;28;20183;-56
2021/07/30 02:16:22;;;;;;;7.10;5.40;;;17.50;99.90;;;;;;5015476;28;20390;-57
2021/07/30 02:18:49;;;;;;;4.50;4.10;;;17.60;99.90;;;;;;5015188;28;20451;-56
2021/07/30 02:21:15;;;;;;;5.10;4.70;;;17.60;99.90;;;;;;5015034;28;20168;-58
2021/07/30 02:23:41;;;;;;;5.10;4.47;;;17.60;99.90;;;;;;5014980;28;20961;-57
2021/07/30 02:26:07;;;;;;;4.53;4.10;;;17.70;99.90;;;;;;5014933;28;20485;-58
2021/07/30 02:28:32;;;;;;;5.60;4.20;;;17.50;99.90;;;;;;5014523;28;20437;-58
2021/07/30 02:30:58;;;;;;;5.37;4.60;;;17.40;99.90;;;;;;5014782;28;20179;-59
2021/07/30 02:33:23;;;;;;;5.30;4.60;;;17.30;99.90;;;;;;5013784;28;20267;-57
2021/07/30 02:35:49;;;;;;;6.00;5.47;;;17.30;99.90;;;;;;5014581;28;20171;-58
2021/07/30 02:38:14;;;;;;;6.00;5.40;;;17.30;99.90;;;;;;5014518;28;20172;-56
2021/07/30 02:40:40;;;;;;;6.50;5.90;;;17.30;99.90;;;;;;5014698;28;20164;-58
2021/07/30 02:43:06;;;;;;;5.70;5.20;;;17.30;99.90;;;;;;5014174;28;20189;-58
2021/07/30 02:45:31;;;;;;;10.03;5.60;;;17.30;99.90;;;;;;5014585;28;20635;-59
2021/07/30 02:47:57;;;;;;;6.03;5.43;;;17.30;99.90;;;;;;5014521;28;20168;-59
2021/07/30 02:50:22;;;;;;;5.47;4.97;;;17.40;99.90;;;;;;5014514;28;20657;-54
2021/07/30 02:52:48;;;;;;;6.17;5.13;;;17.40;99.90;;;;;;5014689;28;20179;-58
2021/07/30 02:55:13;;;;;;;6.03;5.50;;;17.40;99.90;;;;;;5014369;28;20684;-58
2021/07/30 02:57:39;;;;;;;6.40;5.80;;;17.50;99.90;;;;;;5014118;28;20223;-60
2021/07/30 03:00:05;;;;;;;7.87;6.27;;;17.50;99.90;;;;;;5016430;28;20553;-60
2021/07/30 03:02:31;;;;;;;6.30;5.70;;;17.40;99.90;;;;;;5014019;28;20559;-58
2021/07/30 03:04:57;;;;;;;6.67;5.97;;;17.40;99.90;;;;;;5014591;28;20406;-58
2021/07/30 03:07:22;;;;;;;5.30;4.80;;;17.30;99.90;;;;;;5015095;28;20663;-59
2021/07/30 03:09:48;;;;;;;6.50;5.90;;;17.20;99.90;;;;;;5014220;28;20199;-58
2021/07/30 03:12:13;;;;;;;6.33;5.83;;;17.20;99.90;;;;;;5014558;28;20625;-59
2021/07/30 03:14:39;;;;;;;6.60;5.90;;;17.10;99.90;;;;;;5013794;28;20559;-59
2021/07/30 03:17:06;;;;;;;7.57;6.77;;;17.10;99.90;;;;;;5014395;28;20167;-60
2021/07/30 03:19:32;;;;;;;6.57;5.97;;;17.20;99.90;;;;;;5013617;28;20566;-59
2021/07/30 03:21:58;;;;;;;6.70;6.00;;;17.10;99.90;;;;;;5013913;28;20411;-60
2021/07/30 03:24:24;;;;;;;5.93;5.33;;;17.10;99.90;;;;;;5014462;28;20970;-58
2021/07/30 03:26:49;;;;;;;6.03;5.50;;;17.10;99.90;;;;;;5013924;28;20170;-59
2021/07/30 03:29:15;;;;;;;7.40;6.30;;;17.00;99.90;;;;;;5013688;28;20192;-58
2021/07/30 03:31:41;;;;;;;6.70;6.10;;;17.00;99.90;;;;;;5014015;28;20708;-58
2021/07/30 03:34:06;;;;;;;7.60;6.80;;;17.00;99.90;;;;;;5014260;28;20550;-57
2021/07/30 03:36:32;;;;;;;5.10;4.60;;;17.10;99.90;;;;;;5014314;28;20636;-56
2021/07/30 03:38:58;;;;;;;6.03;5.40;;;17.00;99.90;;;;;;5013913;28;20271;-56
2021/07/30 03:41:23;;;;;;;5.87;5.37;;;17.00;99.90;;;;;;5013879;28;20410;-55
2021/07/30 03:43:49;;;;;;;9.00;5.50;;;16.90;99.90;;;;;;5013259;28;20587;-57
2021/07/30 03:46:15;;;;;;;5.80;5.10;;;16.80;99.90;;;;;;5013842;28;20178;-59
2021/07/30 03:48:40;;;;;;;5.87;5.33;;;16.80;99.90;;;;;;5013612;28;20196;-58
2021/07/30 03:51:06;;;;;;;5.93;5.30;;;16.80;99.90;;;;;;5013538;28;20166;-58
2021/07/30 03:53:31;;;;;;;6.10;5.50;;;16.90;99.90;;;;;;5013351;28;20199;-55
2021/07/30 03:55:57;;;;;;;7.47;5.60;;;17.00;99.90;;;;;;5013488;28;20194;-58
2021/07/30 03:58:22;;;;;;;5.07;4.57;;;17.00;99.90;;;;;;5012874;28;20184;-56
2021/07/30 04:00:48;;;;;;;6.83;5.50;;;17.00;99.90;;;;;;5013694;28;20168;-55
2021/07/30 04:03:13;;;;;;;6.90;5.57;;;17.00;99.90;;;;;;5013495;28;20172;-59
2021/07/30 04:05:39;;;;;;;5.90;5.30;;;17.00;99.90;;;;;;5014280;28;20167;-57
2021/07/30 04:08:05;;;;;;;9.60;6.10;;;17.00;99.90;;;;;;5013378;28;20321;-58
2021/07/30 04:10:32;;;;;;;6.00;5.50;;;16.90;99.90;;;;;;5013466;28;20648;-56
2021/07/30 04:12:58;;;;;;;6.37;5.37;;;16.80;99.90;;;;;;5013366;28;20528;-57
2021/07/30 04:15:23;;;;;;;5.27;4.80;;;16.90;99.90;;;;;;5013665;28;20515;-54
2021/07/30 04:17:50;;;;;;;6.03;5.07;;;16.90;99.90;;;;;;5013746;28;20768;-57
2021/07/30 04:20:16;;;;;;;5.67;5.10;;;16.70;99.90;;;;;;5013356;28;20190;-58
2021/07/30 04:22:41;;;;;;;5.67;4.97;;;16.70;99.90;;;;;;5013498;28;20451;-59
2021/07/30 04:25:08;;;;;;;5.43;4.93;;;16.70;99.90;;;;;;5013285;28;20828;-54
2021/07/30 04:27:33;;;;;;;4.33;4.03;;;16.70;99.90;;;;;;5013311;28;20180;-58
2021/07/30 04:29:59;;;;;;;7.00;4.73;;;16.90;99.90;;;;;;5013039;28;20433;-57
2021/07/30 04:32:25;;;;;;;6.17;5.10;;;16.90;99.90;;;;;;5017326;28;20532;-56
2021/07/30 04:34:50;;;;;;;6.20;5.70;;;17.00;99.90;;;;;;5017462;28;20199;-56
2021/07/30 04:37:16;;;;;;;5.20;4.70;;;17.00;99.90;;;;;;5017094;28;20600;-59
2021/07/30 04:39:41;;;;;;;6.80;4.70;;;17.00;99.90;;;;;;5017108;28;20742;-57
2021/07/30 04:42:07;;;;;;;7.27;5.20;;;17.10;99.90;;;;;;5017284;28;20624;-57
2021/07/30 04:44:33;;;;;;;6.43;5.80;;;17.10;99.90;;;;;;5017111;28;20176;-58
2021/07/30 04:46:59;;;;;;;5.70;5.20;;;17.10;99.90;;;;;;5017573;28;20176;-56
2021/07/30 04:49:25;;;;;;;7.07;4.83;;;17.20;99.90;;;;;;5017308;28;20973;-59
2021/07/30 04:51:50;;;;;;;5.40;4.90;;;17.30;99.90;;;;;;5017864;28;20176;-56
2021/07/30 04:54:16;;;;;;;7.57;5.00;;;17.20;99.90;;;;;;5018645;28;20239;-59
2021/07/30 04:56:41;;;;;;;6.43;5.83;;;17.20;99.90;;;;;;5021601;28;20180;-53
2021/07/30 04:59:07;;;;;;;7.30;5.70;;;17.30;99.90;;;;;;5017138;28;20200;-55
2021/07/30 05:01:40;;;;;;;8.20;5.67;;;17.20;99.90;;;;;;5016865;28;20172;-57
2021/07/30 05:04:06;;;;;;;8.30;5.90;;;17.30;99.90;;;;;;5019455;28;20179;-56
2021/07/30 05:06:32;;;;;;;4.77;4.30;;;17.30;99.90;;;;;;5016646;28;20418;-57
2021/07/30 05:08:57;;;;;;;5.33;4.93;;;17.40;99.90;;;;;;5016396;28;20450;-56
2021/07/30 05:11:23;;;;;;;5.47;5.00;;;17.40;99.90;;;;;;5016764;28;20171;-59
2021/07/30 05:13:48;;;;;;;5.60;5.10;;;17.40;99.90;;;;;;5015994;28;20670;-59
2021/07/30 05:16:14;;;;;;;6.77;5.10;;;17.50;99.90;;;;;;5016721;28;20540;-57
2021/07/30 05:18:40;;;;;;;5.93;5.33;;;17.50;99.90;;;;;;5016508;28;20192;-56
2021/07/30 05:21:07;;;;;;;6.53;5.93;;;17.60;99.90;;;;;;5016647;28;20233;-56
2021/07/30 05:23:33;;;;;;;5.40;4.90;;;17.60;99.90;;;;;;5015067;28;20188;-59
2021/07/30 05:25:59;;;;;;;5.17;4.73;;;17.70;99.90;;;;;;5017168;28;20426;-58
2021/07/30 05:28:25;;;;;;;7.57;5.80;;;17.70;99.90;;;;;;5015503;28;20446;-56
2021/07/30 05:30:51;;;;;;;6.40;5.63;;;17.80;99.90;;;;;;5016302;28;20411;-59
2021/07/30 05:33:17;;;;;;;6.43;5.63;;;17.90;99.90;;;;;;5016171;28;20176;-58
2021/07/30 05:35:42;;;;;;;5.53;5.03;;;18.00;99.90;;;;;;5015914;28;20473;-59
2021/07/30 05:38:08;;;;;;;5.73;5.23;;;18.10;99.90;;;;;;5015903;28;20586;-59
2021/07/30 05:40:33;;;;;;;6.10;5.33;;;18.20;99.90;;;;;;5016052;28;20246;-60
2021/07/30 05:42:59;;;;;;;5.83;5.30;;;18.30;99.90;;;;;;5015578;28;20223;-59
2021/07/30 05:45:25;;;;;;;6.87;5.80;;;18.40;99.90;;;;;;5016074;28;20180;-58
2021/07/30 05:47:50;;;;;;;5.83;4.97;;;18.50;99.90;;;;;;5015774;28;20196;-58
2021/07/30 05:50:16;;;;;;;6.03;5.40;;;18.70;99.90;;;;;;5015933;28;20192;-57
2021/07/30 05:52:42;;;;;;;6.20;5.60;;;18.70;99.90;;;;;;5015800;28;20326;-59
2021/07/30 05:55:08;;;;;;;7.50;5.40;;;18.80;99.90;;;;;;5015551;28;20533;-58
2021/07/30 05:57:34;;;;;;;6.67;5.57;;;18.90;99.90;;;;;;5015450;28;20199;-57
2021/07/30 06:00:01;;;;;;;7.37;5.50;;;18.90;99.90;;;;;;5015030;28;20427;-57
2021/07/30 06:02:26;;;;;;;5.70;5.07;;;19.00;99.90;;;;;;5015813;28;20663;-57
2021/07/30 06:04:52;;;;;;;5.17;4.67;;;19.10;99.90;;;;;;5015406;28;20415;-59
2021/07/30 06:07:17;;;;;;;6.53;5.93;;;19.20;99.90;;;;;;5015218;28;20190;-59
2021/07/30 06:09:43;;;;;;;7.87;5.93;;;19.40;99.90;;;;;;5015129;28;20216;-58
2021/07/30 06:12:08;;;;;;;5.90;5.40;;;19.50;99.90;;;;;;5015089;28;20175;-58
2021/07/30 06:14:34;;;;;;;6.27;5.53;;;19.60;99.90;;;;;;5014355;28;20258;-57
2021/07/30 06:17:00;;;;;;;5.50;5.00;;;19.70;99.90;;;;;;5014953;28;20207;-56
2021/07/30 06:19:25;;;;;;;5.93;5.33;;;19.80;99.90;;;;;;5014781;28;20575;-58
2021/07/30 06:21:51;;;;;;;5.80;5.23;;;19.90;99.90;;;;;;5015429;28;20247;-56
2021/07/30 06:24:16;;;;;;;5.53;5.07;;;20.00;99.90;;;;;;5015726;28;20190;-58
2021/07/30 06:26:42;;;;;;;5.77;5.00;;;20.10;99.90;;;;;;5014944;28;20204;-56
2021/07/30 06:29:07;;;;;;;7.23;5.70;;;20.20;99.90;;;;;;5014486;28;20196;-55
2021/07/30 06:31:33;;;;;;;5.90;5.40;;;20.30;99.90;;;;;;5014814;28;20178;-58
2021/07/30 06:33:58;;;;;;;5.70;5.20;;;20.40;99.90;;;;;;5015069;28;20249;-58
2021/07/30 06:36:24;;;;;;;5.57;4.97;;;20.50;99.90;;;;;;5014540;28;20169;-58
2021/07/30 06:38:49;;;;;;;7.60;4.70;;;20.60;99.90;;;;;;5014544;28;20720;-58
2021/07/30 06:41:15;;;;;;;7.53;6.63;;;20.70;99.90;;;;;;5014740;28;20602;-58
2021/07/30 06:43:42;;;;;;;6.67;5.60;;;20.80;99.90;;;;;;5013969;28;20184;-57
2021/07/30 06:46:07;;;;;;;7.47;5.47;;;21.00;99.90;;;;;;5015086;28;20609;-59
2021/07/30 06:48:33;;;;;;;5.67;5.00;;;21.00;99.90;;;;;;5014596;28;20466;-59
2021/07/30 06:50:58;;;;;;;5.93;5.43;;;21.10;99.90;;;;;;5015048;28;20263;-58
2021/07/30 06:53:24;;;;;;;7.07;5.53;;;21.10;99.90;;;;;;5014589;28;20730;-58
2021/07/30 06:55:50;;;;;;;6.37;5.80;;;21.20;99.90;;;;;;5014244;28;20172;-59
2021/07/30 06:58:15;;;;;;;7.80;7.00;;;21.40;99.90;;;;;;5014491;28;20227;-60
2021/07/30 07:00:41;;;;;;;7.20;6.50;;;21.50;99.90;;;;;;5017432;28;20172;-57
2021/07/30 07:03:06;;;;;;;5.57;4.93;;;21.70;99.90;;;;;;5015035;28;20242;-59
2021/07/30 07:05:34;;;;;;;5.97;5.47;;;21.80;99.90;;;;;;5015286;28;20176;-58
2021/07/30 07:07:59;;;;;;;7.30;5.50;;;21.80;99.90;;;;;;5015588;28;20179;-58
2021/07/30 07:10:25;;;;;;;8.50;6.17;;;21.90;99.90;;;;;;5053778;23;20489;-57
2021/07/30 07:12:51;;;;;;;7.90;6.17;;;21.90;99.90;;;;;;5033937;28;20664;-57
2021/07/30 07:15:16;;;;;;;8.80;5.63;;;21.90;99.90;;;;;;5033379;28;20695;-56
2021/07/30 07:17:42;;;;;;;5.97;5.23;;;22.00;99.90;;;;;;5033588;28;20159;-57
2021/07/30 07:20:08;;;;;;;6.20;5.30;;;22.10;99.90;;;;;;5033415;28;20190;-57
2021/07/30 07:22:34;;;;;;;10.30;5.83;;;22.10;99.90;;;;;;5033854;28;20177;-57
2021/07/30 07:24:59;;;;;;;5.40;4.90;;;22.10;99.90;;;;;;5032091;28;20410;-57
2021/07/30 07:27:25;;;;;;;6.60;5.50;;;22.30;99.90;;;;;;5033436;28;20163;-57
2021/07/30 07:29:50;;;;;;;5.80;5.30;;;22.20;99.90;;;;;;5032871;28;20194;-57
2021/07/30 07:32:16;;;;;;;7.87;5.43;;;21.80;99.90;;;;;;5033670;28;20254;-55
2021/07/30 07:34:42;;;;;;;6.63;5.30;;;21.90;99.90;;;;;;5033296;28;20274;-57
2021/07/30 07:37:07;;;;;;;8.90;6.07;;;22.00;99.90;;;;;;5033248;28;20248;-57
2021/07/30 07:39:33;;;;;;;7.93;5.53;;;22.10;99.90;;;;;;5033239;28;20209;-57
2021/07/30 07:41:59;;;;;;;6.70;6.00;;;22.30;99.90;;;;;;5033878;28;20676;-57
2021/07/30 07:44:25;;;;;;;5.23;4.70;;;22.50;99.90;;;;;;5032961;28;20171;-57
2021/07/30 07:46:51;;;;;;;8.50;5.50;;;22.60;99.90;;;;;;5033455;28;20203;-57
2021/07/30 07:49:17;;;;;;;6.37;5.00;;;22.40;99.90;;;;;;5033168;28;20777;-57
2021/07/30 07:51:43;;;;;;;5.73;4.97;;;22.60;99.90;;;;;;5033650;28;20492;-57
2021/07/30 07:54:09;;;;;;;9.43;5.80;;;22.70;99.90;;;;;;5033030;28;20537;-57
2021/07/30 07:56:34;;;;;;;5.80;5.20;;;22.70;99.90;;;;;;5033291;28;20176;-57
2021/07/30 07:59:01;;;;;;;6.23;5.30;;;22.90;99.90;;;;;;5032739;28;20184;-57
2021/07/30 08:01:27;;;;;;;8.23;5.50;;;23.00;99.90;;;;;;5033031;28;20588;-57
2021/07/30 08:03:52;;;;;;;5.57;5.03;;;23.00;99.90;;;;;;5033007;28;20436;-57
2021/07/30 08:06:22;;;;;;;5.77;5.13;;;23.10;99.90;;;;;;5032898;28;20221;-57
2021/07/30 08:08:48;;;;;;;6.37;5.83;;;23.20;99.90;;;;;;5033019;28;20245;-54
2021/07/30 08:11:14;;;;;;;6.73;4.80;;;23.50;99.90;;;;;;5033625;28;20761;-55
2021/07/30 08:13:41;;;;;;;5.03;4.63;;;23.60;99.90;;;;;;5032301;28;20997;-56
2021/07/30 08:16:07;;;;;;;8.63;4.83;;;23.60;99.90;;;;;;5031490;28;20418;-57
2021/07/30 08:18:33;;;;;;;6.10;4.63;;;23.50;99.90;;;;;;5032259;28;20515;-56
2021/07/30 08:21:00;;;;;;;5.60;5.20;;;23.70;99.90;;;;;;5032754;28;20447;-53
2021/07/30 08:23:26;;;;;;;6.27;5.50;;;23.70;99.90;;;;;;5033023;28;20406;-55
2021/07/30 08:25:51;;;;;;;6.13;5.20;;;23.90;99.90;;;;;;5032834;28;20830;-55
2021/07/30 08:28:17;;;;;;;5.43;4.93;;;23.90;99.90;;;;;;5032898;28;20512;-54
2021/07/30 08:30:43;;;;;;;6.43;4.97;;;23.90;99.90;;;;;;5032232;28;20213;-50
2021/07/30 08:33:09;;;;;;;5.57;4.90;;;24.00;99.90;;;;;;5032748;28;20175;-54
2021/07/30 08:35:35;;;;;;;5.30;4.80;;;24.10;99.90;;;;;;5032896;28;20442;-50
2021/07/30 08:38:01;;;;;;;5.30;4.90;;;24.30;99.90;;;;;;5033237;28;20402;-55
2021/07/30 08:40:31;;;;;;;5.53;4.97;;;24.50;99.90;;;;;;5032912;28;20207;-54
2021/07/30 08:42:58;;;;;;;5.70;5.20;;;24.80;99.90;;;;;;5034020;28;20383;-55
2021/07/30 08:45:23;;;;;;;6.87;5.23;;;24.70;99.90;;;;;;5038795;28;20528;-52
2021/07/30 08:47:50;;;;;;;5.63;4.93;;;24.40;99.90;;;;;;5038111;28;20477;-54
2021/07/30 08:50:16;;;;;;;4.97;4.53;;;24.50;99.90;;;;;;5034714;28;20278;-57
2021/07/30 08:52:43;;;;;;;5.73;5.13;;;24.50;99.90;;;;;;5032467;28;20476;-57
2021/07/30 08:55:13;;;;;;;5.10;4.70;;;24.50;99.90;;;;;;5032643;28;20246;-56
2021/07/30 08:57:42;;;;;;;7.60;4.43;;;24.70;99.90;;;;;;5032333;28;20938;-57
2021/07/30 09:00:12;;;;;;;6.60;5.33;;;24.90;99.90;;;;;;5031806;28;20479;-56
2021/07/30 09:02:38;;;;;;;9.20;6.03;;;25.00;99.90;;;;;;5032682;28;20398;-57
2021/07/30 09:05:26;;;;;;;6.10;5.60;;;24.90;99.90;;;;;;5032598;28;20927;-57
2021/07/30 09:07:53;;;;;;;6.53;5.87;;;25.20;99.90;;;;;;5033753;28;20416;-56
2021/07/30 09:10:42;;;;;;;5.17;4.77;;;25.10;99.90;;;;;;5032915;28;20942;-57
2021/07/30 09:13:18;;;;;;;5.37;4.87;;;25.30;99.90;;;;;;5032319;28;20453;-57
2021/07/30 09:15:47;;;;;;;5.93;5.37;;;25.20;99.90;;;;;;5032084;28;20413;-56
2021/07/30 09:18:26;;;;;;;7.30;5.50;;;25.20;99.90;;;;;;5034700;28;20390;-55
2021/07/30 09:20:53;;;;;;;4.97;4.57;;;25.20;99.90;;;;;;5036166;28;20485;-58
2021/07/30 09:23:19;;;;;;;5.70;5.20;;;25.40;99.90;;;;;;5035973;28;20786;-57
2021/07/30 09:25:45;;;;;;;6.63;6.00;;;25.40;99.90;;;;;;5035761;28;20443;-58
2021/07/30 09:28:10;;;;;;;5.73;5.23;;;25.40;99.90;;;;;;5035937;28;20971;-58
2021/07/30 09:30:36;;;;;;;5.57;5.07;;;25.50;99.90;;;;;;5035445;28;20190;-56
2021/07/30 09:33:02;;;;;;;6.13;5.53;;;25.60;99.90;;;;;;5035861;28;20174;-54
2021/07/30 09:35:28;;;;;;;5.37;4.87;;;25.80;99.90;;;;;;5035483;28;20203;-57
2021/07/30 09:38:13;;;;;;;8.20;7.33;;;26.00;99.90;;;;;;5036045;28;20237;-57
2021/07/30 09:40:38;;;;;;;6.27;5.73;;;26.10;99.90;;;;;;5035448;28;20187;-57
2021/07/30 09:43:25;;;;;;;5.93;5.10;;;26.00;99.90;;;;;;5035462;28;20987;-55
2021/07/30 09:46:09;;;;;;;6.10;5.60;;;26.00;99.90;;;;;;5035026;28;20159;-57
2021/07/30 09:48:51;;;;;;;5.43;5.03;;;25.90;99.40;;;;;;5035289;28;20378;-57
2021/07/30 09:51:18;;;;;;;6.53;5.50;;;26.00;99.90;;;;;;5036129;28;20465;-58
2021/07/30 09:53:45;;;;;;;6.07;5.57;;;26.30;99.90;;;;;;5035106;28;20496;-57
2021/07/30 09:56:15;;;;;;;5.87;5.27;;;26.40;99.40;;;;;;5035861;28;20414;-58
2021/07/30 09:58:46;;;;;;;5.97;5.20;;;26.50;99.20;;;;;;5035251;28;20444;-53
2021/07/30 10:01:17;;;;;;;6.17;5.67;;;26.90;99.90;;;;;;5034875;28;20796;-53
2021/07/30 10:03:45;;;;;;;6.10;5.50;;;26.60;99.00;;;;;;5035334;28;20397;-57
2021/07/30 10:06:13;;;;;;;6.03;5.53;;;26.30;99.40;;;;;;5035093;28;20915;-56
2021/07/30 10:08:41;;;;;;;6.00;5.40;;;26.30;99.50;;;;;;5034979;28;20476;-57
2021/07/30 10:11:07;;;;;;;10.50;6.03;;;26.80;99.90;;;;;;5035246;28;20394;-57
2021/07/30 10:13:39;;;;;;;10.00;5.93;;;26.80;99.10;;;;;;5034761;28;20513;-58
2021/07/30 10:16:05;;;;;;;5.60;5.10;;;27.20;99.90;;;;;;5034471;28;20762;-58
2021/07/30 10:18:32;;;;;;;7.83;6.27;;;27.50;97.90;;;;;;5034617;28;20446;-57
2021/07/30 10:21:01;;;;;;;6.30;5.70;;;27.60;97.60;;;;;;5035088;28;20602;-58
2021/07/30 10:23:27;;;;;;;7.20;5.87;;;28.00;98.40;;;;;;5034655;28;20780;-58
2021/07/30 10:26:01;;;;;;;5.27;4.83;;;28.00;97.60;;;;;;5034604;28;20984;-58
2021/07/30 10:28:28;;;;;;;5.90;5.50;;;28.10;97.30;;;;;;5034808;28;20390;-59
2021/07/30 10:30:59;;;;;;;10.83;5.83;;;28.00;97.30;;;;;;5034303;28;20406;-58
2021/07/30 10:33:31;;;;;;;6.60;6.00;;;27.90;98.40;;;;;;5034774;28;20873;-57
2021/07/30 10:36:01;;;;;;;6.00;5.40;;;28.40;97.20;;;;;;5034715;28;20497;-57
2021/07/30 10:38:27;;;;;;;6.13;5.63;;;28.10;98.50;;;;;;5034370;28;20399;-59
2021/07/30 10:40:58;;;;;;;6.47;5.87;;;28.10;98.70;;;;;;5034693;28;20932;-57
2021/07/30 10:43:33;;;;;;;5.20;4.80;;;27.90;98.10;;;;;;5034572;28;20409;-56
2021/07/30 10:46:11;;;;;;;6.27;5.57;;;28.20;98.00;;;;;;5034262;28;20385;-56
2021/07/30 10:48:41;;;;;;;6.50;5.30;;;28.90;96.90;;;;;;5034821;28;20431;-57
2021/07/30 10:51:19;;;;;;;5.83;5.23;;;29.50;96.90;;;;;;5034519;28;20757;-55
2021/07/30 10:54:01;;;;;;;7.30;6.60;;;29.60;95.60;;;;;;5034391;28;20454;-58
2021/07/30 10:56:30;;;;;;;6.20;5.60;;;29.20;95.90;;;;;;5034225;28;20394;-58
2021/07/30 10:58:58;;;;;;;5.87;5.37;;;28.90;95.70;;;;;;5034209;28;20490;-54
2021/07/30 11:01:29;;;;;;;11.00;6.50;;;29.10;96.30;;;;;;5033612;28;20444;-56
2021/07/30 11:04:11;;;;;;;7.43;5.70;;;28.50;96.00;;;;;;5034287;28;20398;-58
2021/07/30 11:06:39;;;;;;;6.83;6.23;;;28.60;96.40;;;;;;5033998;28;20405;-56
2021/07/30 11:09:04;;;;;;;7.30;5.80;;;28.70;96.10;;;;;;5036296;28;20442;-58
2021/07/30 11:11:50;;;;;;;6.40;5.80;;;28.70;95.80;;;;;;5032868;28;20425;-58
2021/07/30 11:14:20;;;;;;;5.73;4.90;;;28.60;95.90;;;;;;5033071;28;20191;-58
2021/07/30 11:16:57;;;;;;;6.20;5.30;;;28.90;96.40;;;;;;5033878;28;20763;-58
2021/07/30 11:19:26;;;;;;;6.17;5.20;;;28.70;95.90;;;;;;5033562;28;20413;-57
2021/07/30 11:21:53;;;;;;;6.63;5.83;;;28.70;95.40;;;;;;5033370;28;20410;-57
2021/07/30 11:24:19;;;;;;;5.90;5.30;;;28.30;95.90;;;;;;5033964;28;20406;-56
2021/07/30 11:26:46;;;;;;;5.90;5.30;;;28.10;96.10;;;;;;5034148;28;20402;-57
2021/07/30 11:29:14;;;;;;;6.20;5.70;;;28.00;96.00;;;;;;5033242;28;20434;-57
2021/07/30 11:31:58;;;;;;;5.53;5.13;;;28.20;96.30;;;;;;5033640;28;20395;-57
2021/07/30 11:34:54;;;;;;;6.53;5.93;;;28.70;96.50;;;;;;5033825;28;20930;-57
2021/07/30 11:37:28;;;;;;;5.73;5.30;;;29.60;94.60;;;;;;5024867;28;20414;-55
2021/07/30 11:39:54;;;;;;;6.30;5.70;;;29.90;93.80;;;;;;5033050;28;20418;-56
2021/07/30 11:42:28;;;;;;;5.80;5.30;;;30.80;92.70;;;;;;5033515;28;20402;-57
2021/07/30 11:44:57;;;;;;;5.70;5.17;;;31.10;92.70;;;;;;5033464;28;20390;-57
2021/07/30 11:47:22;;;;;;;5.33;4.67;;;31.20;92.70;;;;;;5033258;28;20420;-57
2021/07/30 11:50:03;;;;;;;5.30;4.80;;;31.60;92.50;;;;;;5033541;28;20524;-55
2021/07/30 11:52:30;;;;;;;6.17;5.20;;;31.90;90.50;;;;;;5033556;28;20179;-56
2021/07/30 11:55:17;;;;;;;5.47;5.00;;;31.70;90.90;;;;;;5033041;28;20528;-56
2021/07/30 11:57:43;;;;;;;7.20;5.30;;;31.60;91.70;;;;;;5033960;28;20433;-57
2021/07/30 12:00:09;;;;;;;6.07;5.47;;;32.40;91.20;;;;;;5033505;28;20422;-57
2021/07/30 12:02:35;;;;;;;7.63;5.20;;;33.10;88.70;;;;;;5034909;28;20910;-57
2021/07/30 12:05:00;;;;;;;7.63;5.53;;;34.30;84.40;;;;;;5034686;28;20664;-57
2021/07/30 12:07:35;;;;;;;6.00;5.40;;;34.30;80.50;;;;;;5036491;28;20175;-56
2021/07/30 12:10:02;;;;;;;6.90;5.20;;;35.20;81.30;;;;;;5032759;28;20217;-56
2021/07/30 12:12:31;;;;;;;7.20;5.53;;;37.50;72.80;;;;;;5033334;28;20416;-58
2021/07/30 12:14:58;;;;;;;6.03;5.43;;;37.40;68.60;;;;;;5032259;28;20445;-58
2021/07/30 12:17:29;;;;;;;6.07;5.57;;;36.50;71.20;;;;;;5033132;28;20398;-58
2021/07/30 12:20:02;;;;;;;6.40;5.90;;;36.00;69.30;;;;;;5032702;28;20430;-58
2021/07/30 12:22:36;;;;;;;5.93;5.40;;;35.50;70.90;;;;;;5032709;28;20437;-58
2021/07/30 12:25:04;;;;;;;6.00;5.50;;;34.80;71.00;;;;;;5033051;28;20468;-57
2021/07/30 12:27:29;;;;;;;6.20;5.70;;;33.90;74.00;;;;;;5032657;28;20398;-57
2021/07/30 12:29:55;;;;;;;5.60;5.00;;;33.00;75.50;;;;;;5032219;28;20430;-57
2021/07/30 12:32:23;;;;;;;6.37;5.77;;;33.00;77.60;;;;;;5032707;28;20526;-58
2021/07/30 12:34:57;;;;;;;6.07;5.57;;;33.20;78.00;;;;;;5032848;28;20565;-57
2021/07/30 12:37:24;;;;;;;5.70;5.20;;;33.20;83.00;;;;;;5032840;28;20408;-57
2021/07/30 12:39:52;;;;;;;6.00;5.50;;;32.40;78.10;;;;;;5032601;28;20422;-58
2021/07/30 12:42:31;;;;;;;5.97;5.47;;;32.10;80.30;;;;;;5032956;28;20406;-58
2021/07/30 12:45:04;;;;;;;6.10;5.60;;;33.40;79.60;;;;;;5032434;28;20398;-58
2021/07/30 12:47:30;;;;;;;5.07;4.67;;;33.70;79.80;;;;;;5032848;28;20406;-58
2021/07/30 12:49:56;;;;;;;6.87;6.17;;;33.50;77.40;;;;;;5032897;28;20460;-58